sensor_id;sensor_type;location;lat;lon;timestamp;temperature;humidity
55004;DHT22;40900;52.710;6.438;2023-02-28T00:00:26;4.40;99.90
55004;DHT22;40900;52.710;6.438;2023-02-28T00:02:53;4.40;99.90
55004;DHT22;40900;52.710;6.438;2023-02-28T00:05:21;4.30;99.90
55004;DHT22;40900;52.710;6.438;2023-02-28T00:07:47;4.30;99.90
55004;DHT22;40900;52.710;6.438;2023-02-28T00:10:17;4.30;99.90
55004;DHT22;40900;52.710;6.438;2023-02-28T00:12:47;4.30;99.90
55004;DHT22;40900;52.710;6.438;2023-02-28T00:15:12;4.30;99.90
55004;DHT22;40900;52.710;6.438;2023-02-28T00:17:38;4.40;99.90
55004;DHT22;40900;52.710;6.438;2023-02-28T00:20:05;4.40;99.90
55004;DHT22;40900;52.710;6.438;2023-02-28T00:22:36;4.40;99.90
55004;DHT22;40900;52.710;6.438;2023-02-28T00:25:03;4.40;99.90
55004;DHT22;40900;52.710;6.438;2023-02-28T00:27:30;4.40;99.90
55004;DHT22;40900;52.710;6.438;2023-02-28T00:29:56;4.40;99.90
55004;DHT22;40900;52.710;6.438;2023-02-28T00:32:21;4.40;99.90
55004;DHT22;40900;52.710;6.438;2023-02-28T00:34:47;4.40;99.90
55004;DHT22;40900;52.710;6.438;2023-02-28T00:37:13;4.40;99.90
55004;DHT22;40900;52.710;6.438;2023-02-28T00:39:39;4.40;99.90
55004;DHT22;40900;52.710;6.438;2023-02-28T00:42:06;4.40;99.90
55004;DHT22;40900;52.710;6.438;2023-02-28T00:44:32;4.40;99.90
55004;DHT22;40900;52.710;6.438;2023-02-28T00:46:58;4.40;99.90
55004;DHT22;40900;52.710;6.438;2023-02-28T00:49:26;4.40;99.90
55004;DHT22;40900;52.710;6.438;2023-02-28T00:51:53;4.50;99.90
55004;DHT22;40900;52.710;6.438;2023-02-28T00:54:19;4.40;99.90
55004;DHT22;40900;52.710;6.438;2023-02-28T00:56:45;4.40;99.90
55004;DHT22;40900;52.710;6.438;2023-02-28T00:59:12;4.40;99.90
55004;DHT22;40900;52.710;6.438;2023-02-28T01:01:38;4.50;99.90
55004;DHT22;40900;52.710;6.438;2023-02-28T01:04:04;4.50;99.90
55004;DHT22;40900;52.710;6.438;2023-02-28T01:06:30;4.50;99.90
55004;DHT22;40900;52.710;6.438;2023-02-28T01:08:57;4.50;99.90
55004;DHT22;40900;52.710;6.438;2023-02-28T01:11:24;4.50;99.90
55004;DHT22;40900;52.710;6.438;2023-02-28T01:13:50;4.60;99.90
55004;DHT22;40900;52.710;6.438;2023-02-28T01:16:16;4.50;99.90
55004;DHT22;40900;52.710;6.438;2023-02-28T01:18:41;4.50;99.90
55004;DHT22;40900;52.710;6.438;2023-02-28T01:21:13;4.60;99.90
55004;DHT22;40900;52.710;6.438;2023-02-28T01:23:40;4.50;99.90
55004;DHT22;40900;52.710;6.438;2023-02-28T01:26:08;4.50;99.90
55004;DHT22;40900;52.710;6.438;2023-02-28T01:28:34;4.50;99.90
55004;DHT22;40900;52.710;6.438;2023-02-28T01:31:00;4.40;99.90
55004;DHT22;40900;52.710;6.438;2023-02-28T01:33:26;4.40;99.90
55004;DHT22;40900;52.710;6.438;2023-02-28T01:36:03;4.40;99.90
55004;DHT22;40900;52.710;6.438;2023-02-28T01:38:29;4.40;99.90
55004;DHT22;40900;52.710;6.438;2023-02-28T01:40:55;4.40;99.90
55004;DHT22;40900;52.710;6.438;2023-02-28T01:43:27;4.40;99.90
55004;DHT22;40900;52.710;6.438;2023-02-28T01:45:55;4.40;99.90
55004;DHT22;40900;52.710;6.438;2023-02-28T01:48:27;4.40;99.90
55004;DHT22;40900;52.710;6.438;2023-02-28T01:50:55;4.40;99.90
55004;DHT22;40900;52.710;6.438;2023-02-28T01:53:32;4.40;99.90
55004;DHT22;40900;52.710;6.438;2023-02-28T01:55:59;4.40;99.90
55004;DHT22;40900;52.710;6.438;2023-02-28T01:58:25;4.40;99.90
55004;DHT22;40900;52.710;6.438;2023-02-28T02:00:51;4.40;99.90
55004;DHT22;40900;52.710;6.438;2023-02-28T02:03:19;4.40;99.90
55004;DHT22;40900;52.710;6.438;2023-02-28T02:05:45;4.40;99.90
55004;DHT22;40900;52.710;6.438;2023-02-28T02:08:20;4.40;99.90
55004;DHT22;40900;52.710;6.438;2023-02-28T02:10:55;4.40;99.90
55004;DHT22;40900;52.710;6.438;2023-02-28T02:26:52;4.30;99.90
55004;DHT22;40900;52.710;6.438;2023-02-28T02:29:41;4.30;99.90
55004;DHT22;40900;52.710;6.438;2023-02-28T02:40:20;4.30;99.90
55004;DHT22;40900;52.710;6.438;2023-02-28T02:43:03;4.30;99.90
55004;DHT22;40900;52.710;6.438;2023-02-28T02:45:50;4.30;99.90
55004;DHT22;40900;52.710;6.438;2023-02-28T02:48:20;4.20;99.90
55004;DHT22;40900;52.710;6.438;2023-02-28T02:50:59;4.20;99.90
55004;DHT22;40900;52.710;6.438;2023-02-28T02:53:32;4.10;99.90
55004;DHT22;40900;52.710;6.438;2023-02-28T02:56:01;4.10;99.90
55004;DHT22;40900;52.710;6.438;2023-02-28T02:58:40;4.10;99.90
55004;DHT22;40900;52.710;6.438;2023-02-28T03:01:11;4.10;99.90
55004;DHT22;40900;52.710;6.438;2023-02-28T03:03:38;4.10;99.90
55004;DHT22;40900;52.710;6.438;2023-02-28T03:06:04;4.00;99.90
55004;DHT22;40900;52.710;6.438;2023-02-28T03:08:35;4.00;99.90
55004;DHT22;40900;52.710;6.438;2023-02-28T03:11:04;4.00;99.90
55004;DHT22;40900;52.710;6.438;2023-02-28T03:27:06;3.90;99.90
55004;DHT22;40900;52.710;6.438;2023-02-28T03:29:40;3.90;99.90
55004;DHT22;40900;52.710;6.438;2023-02-28T03:32:24;3.90;99.90
55004;DHT22;40900;52.710;6.438;2023-02-28T03:35:14;3.90;99.90
55004;DHT22;40900;52.710;6.438;2023-02-28T03:37:52;3.90;99.90
55004;DHT22;40900;52.710;6.438;2023-02-28T03:40:24;3.80;99.90
55004;DHT22;40900;52.710;6.438;2023-02-28T03:42:56;3.80;99.90
55004;DHT22;40900;52.710;6.438;2023-02-28T03:45:28;3.80;99.90
55004;DHT22;40900;52.710;6.438;2023-02-28T03:48:22;3.80;99.90
55004;DHT22;40900;52.710;6.438;2023-02-28T03:50:52;3.80;99.90
55004;DHT22;40900;52.710;6.438;2023-02-28T03:53:25;3.80;99.90
55004;DHT22;40900;52.710;6.438;2023-02-28T03:56:01;3.80;99.90
55004;DHT22;40900;52.710;6.438;2023-02-28T03:58:57;3.70;99.90
55004;DHT22;40900;52.710;6.438;2023-02-28T04:01:30;3.70;99.90
55004;DHT22;40900;52.710;6.438;2023-02-28T04:03:57;3.70;99.90
55004;DHT22;40900;52.710;6.438;2023-02-28T04:06:24;3.70;99.90
55004;DHT22;40900;52.710;6.438;2023-02-28T04:08:50;3.70;99.90
55004;DHT22;40900;52.710;6.438;2023-02-28T04:11:23;3.70;99.90
55004;DHT22;40900;52.710;6.438;2023-02-28T04:13:49;3.70;99.90
55004;DHT22;40900;52.710;6.438;2023-02-28T04:16:15;3.70;99.90
55004;DHT22;40900;52.710;6.438;2023-02-28T04:18:42;3.70;99.90
55004;DHT22;40900;52.710;6.438;2023-02-28T04:21:09;3.70;99.90
55004;DHT22;40900;52.710;6.438;2023-02-28T04:23:35;3.70;99.90
55004;DHT22;40900;52.710;6.438;2023-02-28T04:26:01;3.80;99.90
55004;DHT22;40900;52.710;6.438;2023-02-28T04:28:27;3.70;99.90
55004;DHT22;40900;52.710;6.438;2023-02-28T04:31:02;3.80;99.90
55004;DHT22;40900;52.710;6.438;2023-02-28T04:33:28;3.80;99.90
55004;DHT22;40900;52.710;6.438;2023-02-28T04:36:08;3.80;99.90
55004;DHT22;40900;52.710;6.438;2023-02-28T04:38:36;3.70;99.90
55004;DHT22;40900;52.710;6.438;2023-02-28T04:41:02;3.70;99.90
55004;DHT22;40900;52.710;6.438;2023-02-28T04:43:28;3.70;99.90
55004;DHT22;40900;52.710;6.438;2023-02-28T04:45:55;3.70;99.90
55004;DHT22;40900;52.710;6.438;2023-02-28T04:48:25;3.70;99.90
55004;DHT22;40900;52.710;6.438;2023-02-28T04:50:52;3.70;99.90
55004;DHT22;40900;52.710;6.438;2023-02-28T04:53:18;3.70;99.90
55004;DHT22;40900;52.710;6.438;2023-02-28T04:55:44;3.60;99.90
55004;DHT22;40900;52.710;6.438;2023-02-28T04:58:11;3.60;99.90
55004;DHT22;40900;52.710;6.438;2023-02-28T05:00:37;3.50;99.90
55004;DHT22;40900;52.710;6.438;2023-02-28T05:03:03;3.60;99.90
55004;DHT22;40900;52.710;6.438;2023-02-28T05:05:28;3.50;99.90
55004;DHT22;40900;52.710;6.438;2023-02-28T05:07:54;3.50;99.90
55004;DHT22;40900;52.710;6.438;2023-02-28T05:10:22;3.50;99.90
55004;DHT22;40900;52.710;6.438;2023-02-28T05:12:48;3.50;99.90
55004;DHT22;40900;52.710;6.438;2023-02-28T05:15:15;3.50;99.90
55004;DHT22;40900;52.710;6.438;2023-02-28T05:17:41;3.50;99.90
55004;DHT22;40900;52.710;6.438;2023-02-28T05:20:08;3.50;99.90
55004;DHT22;40900;52.710;6.438;2023-02-28T05:22:41;3.50;99.90
55004;DHT22;40900;52.710;6.438;2023-02-28T05:25:12;3.40;99.90
55004;DHT22;40900;52.710;6.438;2023-02-28T05:27:39;3.50;99.90
55004;DHT22;40900;52.710;6.438;2023-02-28T05:30:06;3.50;99.90
55004;DHT22;40900;52.710;6.438;2023-02-28T05:32:32;3.50;99.90
55004;DHT22;40900;52.710;6.438;2023-02-28T05:34:58;3.50;99.90
55004;DHT22;40900;52.710;6.438;2023-02-28T05:37:23;3.40;99.90
55004;DHT22;40900;52.710;6.438;2023-02-28T05:39:49;3.40;99.90
55004;DHT22;40900;52.710;6.438;2023-02-28T05:42:15;3.40;99.90
55004;DHT22;40900;52.710;6.438;2023-02-28T05:44:40;3.40;99.90
55004;DHT22;40900;52.710;6.438;2023-02-28T05:47:07;3.40;99.90
55004;DHT22;40900;52.710;6.438;2023-02-28T05:49:33;3.40;99.90
55004;DHT22;40900;52.710;6.438;2023-02-28T05:51:59;3.40;99.90
55004;DHT22;40900;52.710;6.438;2023-02-28T05:54:24;3.40;99.90
55004;DHT22;40900;52.710;6.438;2023-02-28T05:56:50;3.40;99.90
55004;DHT22;40900;52.710;6.438;2023-02-28T05:59:16;3.40;99.90
55004;DHT22;40900;52.710;6.438;2023-02-28T06:01:43;3.40;99.90
55004;DHT22;40900;52.710;6.438;2023-02-28T06:04:17;3.40;99.90
55004;DHT22;40900;52.710;6.438;2023-02-28T06:06:48;3.30;99.90
55004;DHT22;40900;52.710;6.438;2023-02-28T06:09:14;3.40;99.90
55004;DHT22;40900;52.710;6.438;2023-02-28T06:11:41;3.40;99.90
55004;DHT22;40900;52.710;6.438;2023-02-28T06:14:07;3.30;99.90
55004;DHT22;40900;52.710;6.438;2023-02-28T06:16:38;3.40;99.90
55004;DHT22;40900;52.710;6.438;2023-02-28T06:19:04;3.40;99.90
55004;DHT22;40900;52.710;6.438;2023-02-28T06:21:30;3.40;99.90
55004;DHT22;40900;52.710;6.438;2023-02-28T06:23:57;3.40;99.90
55004;DHT22;40900;52.710;6.438;2023-02-28T06:26:23;3.40;99.90
55004;DHT22;40900;52.710;6.438;2023-02-28T06:28:49;3.40;99.90
55004;DHT22;40900;52.710;6.438;2023-02-28T06:31:16;3.40;99.90
55004;DHT22;40900;52.710;6.438;2023-02-28T06:33:42;3.30;99.90
55004;DHT22;40900;52.710;6.438;2023-02-28T06:36:09;3.30;99.90
55004;DHT22;40900;52.710;6.438;2023-02-28T06:38:36;3.30;99.90
55004;DHT22;40900;52.710;6.438;2023-02-28T06:41:03;3.30;99.90
55004;DHT22;40900;52.710;6.438;2023-02-28T06:43:31;3.20;99.90
55004;DHT22;40900;52.710;6.438;2023-02-28T06:46:00;3.20;99.90
55004;DHT22;40900;52.710;6.438;2023-02-28T06:48:27;3.20;99.90
55004;DHT22;40900;52.710;6.438;2023-02-28T06:51:10;3.20;99.90
55004;DHT22;40900;52.710;6.438;2023-02-28T06:53:37;3.30;99.90
55004;DHT22;40900;52.710;6.438;2023-02-28T06:56:05;3.30;99.90
55004;DHT22;40900;52.710;6.438;2023-02-28T06:58:32;3.20;99.90
55004;DHT22;40900;52.710;6.438;2023-02-28T07:00:57;3.20;99.90
55004;DHT22;40900;52.710;6.438;2023-02-28T07:03:23;3.20;99.90
55004;DHT22;40900;52.710;6.438;2023-02-28T07:05:49;3.30;99.90
55004;DHT22;40900;52.710;6.438;2023-02-28T07:08:15;3.30;99.90
55004;DHT22;40900;52.710;6.438;2023-02-28T07:10:41;3.30;99.90
55004;DHT22;40900;52.710;6.438;2023-02-28T07:13:08;3.30;99.90
55004;DHT22;40900;52.710;6.438;2023-02-28T07:15:35;3.30;99.90
55004;DHT22;40900;52.710;6.438;2023-02-28T07:18:01;3.30;99.90
55004;DHT22;40900;52.710;6.438;2023-02-28T07:20:27;3.30;99.90
55004;DHT22;40900;52.710;6.438;2023-02-28T07:22:52;3.30;99.90
55004;DHT22;40900;52.710;6.438;2023-02-28T07:25:27;3.30;99.90
55004;DHT22;40900;52.710;6.438;2023-02-28T07:27:55;3.30;99.90
55004;DHT22;40900;52.710;6.438;2023-02-28T07:30:21;3.30;99.90
55004;DHT22;40900;52.710;6.438;2023-02-28T07:32:47;3.40;99.90
55004;DHT22;40900;52.710;6.438;2023-02-28T07:35:14;3.40;99.90
55004;DHT22;40900;52.710;6.438;2023-02-28T07:37:41;3.40;99.90
55004;DHT22;40900;52.710;6.438;2023-02-28T07:40:10;3.50;99.90
55004;DHT22;40900;52.710;6.438;2023-02-28T07:42:40;3.50;99.90
55004;DHT22;40900;52.710;6.438;2023-02-28T07:45:07;3.50;99.90
55004;DHT22;40900;52.710;6.438;2023-02-28T07:47:33;3.50;99.90
55004;DHT22;40900;52.710;6.438;2023-02-28T07:49:59;3.50;99.90
55004;DHT22;40900;52.710;6.438;2023-02-28T07:52:25;3.60;99.90
55004;DHT22;40900;52.710;6.438;2023-02-28T07:54:51;3.60;99.90
55004;DHT22;40900;52.710;6.438;2023-02-28T07:57:18;3.80;99.90
55004;DHT22;40900;52.710;6.438;2023-02-28T07:59:44;4.40;99.90
55004;DHT22;40900;52.710;6.438;2023-02-28T08:02:15;4.90;99.90
55004;DHT22;40900;52.710;6.438;2023-02-28T08:04:42;5.30;99.90
55004;DHT22;40900;52.710;6.438;2023-02-28T08:07:08;5.90;99.90
55004;DHT22;40900;52.710;6.438;2023-02-28T08:09:33;6.50;99.90
55004;DHT22;40900;52.710;6.438;2023-02-28T08:11:59;6.90;99.90
55004;DHT22;40900;52.710;6.438;2023-02-28T08:14:25;7.20;99.90
55004;DHT22;40900;52.710;6.438;2023-02-28T08:16:51;7.60;99.90
55004;DHT22;40900;52.710;6.438;2023-02-28T08:19:17;7.60;99.90
55004;DHT22;40900;52.710;6.438;2023-02-28T08:21:42;7.30;99.90
55004;DHT22;40900;52.710;6.438;2023-02-28T08:24:08;7.00;99.90
55004;DHT22;40900;52.710;6.438;2023-02-28T08:26:34;6.80;99.90
55004;DHT22;40900;52.710;6.438;2023-02-28T08:28:59;6.60;99.90
55004;DHT22;40900;52.710;6.438;2023-02-28T08:31:25;6.50;99.90
55004;DHT22;40900;52.710;6.438;2023-02-28T08:33:51;6.50;99.90
55004;DHT22;40900;52.710;6.438;2023-02-28T08:36:19;6.50;99.90
55004;DHT22;40900;52.710;6.438;2023-02-28T08:38:45;6.50;99.90
55004;DHT22;40900;52.710;6.438;2023-02-28T08:41:12;6.60;99.90
55004;DHT22;40900;52.710;6.438;2023-02-28T08:43:39;6.50;99.90
55004;DHT22;40900;52.710;6.438;2023-02-28T08:46:05;6.40;99.90
55004;DHT22;40900;52.710;6.438;2023-02-28T08:48:34;6.40;99.90
55004;DHT22;40900;52.710;6.438;2023-02-28T08:51:14;6.40;99.90
55004;DHT22;40900;52.710;6.438;2023-02-28T08:53:41;6.40;99.90
55004;DHT22;40900;52.710;6.438;2023-02-28T08:56:10;6.60;99.90
55004;DHT22;40900;52.710;6.438;2023-02-28T08:58:36;6.90;99.90
55004;DHT22;40900;52.710;6.438;2023-02-28T09:01:29;7.20;99.90
55004;DHT22;40900;52.710;6.438;2023-02-28T09:03:55;7.70;99.90
55004;DHT22;40900;52.710;6.438;2023-02-28T09:06:23;8.60;99.90
55004;DHT22;40900;52.710;6.438;2023-02-28T09:08:50;9.30;99.90
55004;DHT22;40900;52.710;6.438;2023-02-28T09:11:16;9.50;99.90
55004;DHT22;40900;52.710;6.438;2023-02-28T09:13:42;9.40;99.90
55004;DHT22;40900;52.710;6.438;2023-02-28T09:16:11;9.00;99.90
55004;DHT22;40900;52.710;6.438;2023-02-28T09:18:38;8.60;99.90
55004;DHT22;40900;52.710;6.438;2023-02-28T09:21:10;8.30;99.90
55004;DHT22;40900;52.710;6.438;2023-02-28T09:23:38;8.20;99.90
55004;DHT22;40900;52.710;6.438;2023-02-28T09:26:05;8.10;99.90
55004;DHT22;40900;52.710;6.438;2023-02-28T09:28:31;8.20;99.90
55004;DHT22;40900;52.710;6.438;2023-02-28T09:30:57;8.30;99.90
55004;DHT22;40900;52.710;6.438;2023-02-28T09:33:24;8.80;99.90
55004;DHT22;40900;52.710;6.438;2023-02-28T09:35:53;9.00;99.90
55004;DHT22;40900;52.710;6.438;2023-02-28T09:38:22;8.50;99.90
55004;DHT22;40900;52.710;6.438;2023-02-28T09:40:53;9.40;99.90
55004;DHT22;40900;52.710;6.438;2023-02-28T09:43:23;10.80;99.90
55004;DHT22;40900;52.710;6.438;2023-02-28T09:46:00;12.40;99.90
55004;DHT22;40900;52.710;6.438;2023-02-28T09:48:36;13.60;99.90
55004;DHT22;40900;52.710;6.438;2023-02-28T09:53:55;15.90;94.40
55004;DHT22;40900;52.710;6.438;2023-02-28T09:56:25;16.10;93.50
55004;DHT22;40900;52.710;6.438;2023-02-28T10:01:55;17.60;87.20
55004;DHT22;40900;52.710;6.438;2023-02-28T10:07:04;18.00;75.90
55004;DHT22;40900;52.710;6.438;2023-02-28T10:09:33;18.30;77.30
55004;DHT22;40900;52.710;6.438;2023-02-28T10:12:03;19.20;77.60
55004;DHT22;40900;52.710;6.438;2023-02-28T10:14:31;19.10;75.80
55004;DHT22;40900;52.710;6.438;2023-02-28T10:17:08;18.70;74.40
55004;DHT22;40900;52.710;6.438;2023-02-28T10:25:34;18.60;73.60
55004;DHT22;40900;52.710;6.438;2023-02-28T10:28:15;18.40;73.60
55004;DHT22;40900;52.710;6.438;2023-02-28T10:30:47;19.40;74.10
55004;DHT22;40900;52.710;6.438;2023-02-28T10:33:31;19.80;73.20
55004;DHT22;40900;52.710;6.438;2023-02-28T10:35:57;20.30;70.70
55004;DHT22;40900;52.710;6.438;2023-02-28T10:38:31;20.50;73.00
55004;DHT22;40900;52.710;6.438;2023-02-28T10:41:30;19.90;72.10
55004;DHT22;40900;52.710;6.438;2023-02-28T10:44:20;19.20;73.30
55004;DHT22;40900;52.710;6.438;2023-02-28T10:46:46;19.50;72.40
55004;DHT22;40900;52.710;6.438;2023-02-28T10:49:21;19.70;74.60
55004;DHT22;40900;52.710;6.438;2023-02-28T10:51:51;20.00;72.80
55004;DHT22;40900;52.710;6.438;2023-02-28T10:54:24;20.40;72.40
55004;DHT22;40900;52.710;6.438;2023-02-28T10:59:39;20.70;71.90
55004;DHT22;40900;52.710;6.438;2023-02-28T11:02:34;20.70;70.70
55004;DHT22;40900;52.710;6.438;2023-02-28T11:05:01;20.30;69.30
55004;DHT22;40900;52.710;6.438;2023-02-28T11:07:27;20.00;71.60
55004;DHT22;40900;52.710;6.438;2023-02-28T11:09:57;20.20;70.30
55004;DHT22;40900;52.710;6.438;2023-02-28T11:15:03;20.00;70.80
55004;DHT22;40900;52.710;6.438;2023-02-28T11:17:33;20.40;69.80
55004;DHT22;40900;52.710;6.438;2023-02-28T11:20:06;20.40;69.20
55004;DHT22;40900;52.710;6.438;2023-02-28T11:22:39;20.30;67.90
55004;DHT22;40900;52.710;6.438;2023-02-28T11:25:28;20.60;67.20
55004;DHT22;40900;52.710;6.438;2023-02-28T11:28:00;20.70;66.00
55004;DHT22;40900;52.710;6.438;2023-02-28T11:30:38;20.80;65.70
55004;DHT22;40900;52.710;6.438;2023-02-28T11:33:30;20.40;65.10
55004;DHT22;40900;52.710;6.438;2023-02-28T11:36:24;19.70;65.30
55004;DHT22;40900;52.710;6.438;2023-02-28T11:38:51;19.00;65.60
55004;DHT22;40900;52.710;6.438;2023-02-28T11:50:15;15.10;72.70
55004;DHT22;40900;52.710;6.438;2023-02-28T11:53:10;14.50;71.80
55004;DHT22;40900;52.710;6.438;2023-02-28T11:55:39;13.70;73.10
55004;DHT22;40900;52.710;6.438;2023-02-28T11:58:19;13.20;73.90
55004;DHT22;40900;52.710;6.438;2023-02-28T12:01:31;13.10;76.30
55004;DHT22;40900;52.710;6.438;2023-02-28T12:15:16;11.80;78.60
55004;DHT22;40900;52.710;6.438;2023-02-28T12:17:51;11.80;79.40
55004;DHT22;40900;52.710;6.438;2023-02-28T12:20:41;11.80;78.30
55004;DHT22;40900;52.710;6.438;2023-02-28T12:29:16;11.30;80.80
55004;DHT22;40900;52.710;6.438;2023-02-28T12:31:48;11.40;82.00
55004;DHT22;40900;52.710;6.438;2023-02-28T12:34:21;11.30;78.20
55004;DHT22;40900;52.710;6.438;2023-02-28T12:36:51;11.20;80.00
55004;DHT22;40900;52.710;6.438;2023-02-28T12:39:26;11.30;78.40
55004;DHT22;40900;52.710;6.438;2023-02-28T12:42:12;11.30;79.90
55004;DHT22;40900;52.710;6.438;2023-02-28T12:44:56;11.30;79.20
55004;DHT22;40900;52.710;6.438;2023-02-28T12:47:23;11.40;78.90
55004;DHT22;40900;52.710;6.438;2023-02-28T12:50:13;11.20;78.70
55004;DHT22;40900;52.710;6.438;2023-02-28T13:03:42;11.20;80.00
55004;DHT22;40900;52.710;6.438;2023-02-28T13:09:01;11.00;78.40
55004;DHT22;40900;52.710;6.438;2023-02-28T13:14:18;10.70;79.20
55004;DHT22;40900;52.710;6.438;2023-02-28T13:17:23;10.80;79.00
55004;DHT22;40900;52.710;6.438;2023-02-28T13:28:01;10.50;80.60
55004;DHT22;40900;52.710;6.438;2023-02-28T13:36:30;10.30;83.10
55004;DHT22;40900;52.710;6.438;2023-02-28T13:39:02;10.20;83.70
55004;DHT22;40900;52.710;6.438;2023-02-28T13:49:30;10.40;84.40
55004;DHT22;40900;52.710;6.438;2023-02-28T13:57:44;10.40;83.70
55004;DHT22;40900;52.710;6.438;2023-02-28T14:03:14;10.40;82.10
55004;DHT22;40900;52.710;6.438;2023-02-28T14:05:43;10.40;84.10
55004;DHT22;40900;52.710;6.438;2023-02-28T14:08:20;10.50;84.00
55004;DHT22;40900;52.710;6.438;2023-02-28T14:10:49;10.40;85.40
55004;DHT22;40900;52.710;6.438;2023-02-28T14:13:41;10.40;83.90
55004;DHT22;40900;52.710;6.438;2023-02-28T14:16:11;10.30;84.80
55004;DHT22;40900;52.710;6.438;2023-02-28T14:18:42;10.30;84.40
55004;DHT22;40900;52.710;6.438;2023-02-28T14:26:19;10.30;84.00
55004;DHT22;40900;52.710;6.438;2023-02-28T14:29:22;10.30;83.60
55004;DHT22;40900;52.710;6.438;2023-02-28T14:32:06;10.20;84.20
55004;DHT22;40900;52.710;6.438;2023-02-28T14:37:26;10.20;85.10
55004;DHT22;40900;52.710;6.438;2023-02-28T14:39:53;10.20;83.40
55004;DHT22;40900;52.710;6.438;2023-02-28T14:42:34;10.10;83.70
55004;DHT22;40900;52.710;6.438;2023-02-28T14:45:01;10.10;84.20
55004;DHT22;40900;52.710;6.438;2023-02-28T14:47:33;10.00;84.20
55004;DHT22;40900;52.710;6.438;2023-02-28T14:50:03;10.10;84.40
55004;DHT22;40900;52.710;6.438;2023-02-28T14:52:31;10.00;83.70
55004;DHT22;40900;52.710;6.438;2023-02-28T14:55:05;10.00;85.00
55004;DHT22;40900;52.710;6.438;2023-02-28T14:57:40;9.90;85.60
55004;DHT22;40900;52.710;6.438;2023-02-28T15:00:27;9.90;85.80
55004;DHT22;40900;52.710;6.438;2023-02-28T15:02:55;9.90;86.30
55004;DHT22;40900;52.710;6.438;2023-02-28T15:05:28;9.80;86.10
55004;DHT22;40900;52.710;6.438;2023-02-28T15:10:28;9.80;87.60
55004;DHT22;40900;52.710;6.438;2023-02-28T15:13:15;9.90;87.30
55004;DHT22;40900;52.710;6.438;2023-02-28T15:20:45;9.90;86.40
55004;DHT22;40900;52.710;6.438;2023-02-28T15:23:12;9.80;86.50
55004;DHT22;40900;52.710;6.438;2023-02-28T15:25:38;9.80;86.20
55004;DHT22;40900;52.710;6.438;2023-02-28T15:28:05;9.90;85.90
55004;DHT22;40900;52.710;6.438;2023-02-28T15:30:32;9.80;86.90
55004;DHT22;40900;52.710;6.438;2023-02-28T15:35:34;9.80;87.90
55004;DHT22;40900;52.710;6.438;2023-02-28T15:40:53;9.60;89.10
55004;DHT22;40900;52.710;6.438;2023-02-28T15:46:10;9.50;89.10
55004;DHT22;40900;52.710;6.438;2023-02-28T15:48:37;9.30;88.00
55004;DHT22;40900;52.710;6.438;2023-02-28T15:51:18;9.20;87.90
55004;DHT22;40900;52.710;6.438;2023-02-28T15:53:48;9.30;88.50
55004;DHT22;40900;52.710;6.438;2023-02-28T15:56:35;9.40;87.90
55004;DHT22;40900;52.710;6.438;2023-02-28T15:59:12;9.20;88.80
55004;DHT22;40900;52.710;6.438;2023-02-28T16:01:40;9.20;89.50
55004;DHT22;40900;52.710;6.438;2023-02-28T16:04:19;9.20;90.00
55004;DHT22;40900;52.710;6.438;2023-02-28T16:07:01;9.10;90.30
55004;DHT22;40900;52.710;6.438;2023-02-28T16:09:27;9.10;90.30
55004;DHT22;40900;52.710;6.438;2023-02-28T16:11:56;9.00;90.30
55004;DHT22;40900;52.710;6.438;2023-02-28T16:14:26;8.90;90.30
55004;DHT22;40900;52.710;6.438;2023-02-28T16:17:02;8.90;90.40
55004;DHT22;40900;52.710;6.438;2023-02-28T16:19:28;8.70;90.80
55004;DHT22;40900;52.710;6.438;2023-02-28T16:21:57;8.70;90.90
55004;DHT22;40900;52.710;6.438;2023-02-28T16:24:26;8.60;91.80
55004;DHT22;40900;52.710;6.438;2023-02-28T16:26:53;8.60;91.90
55004;DHT22;40900;52.710;6.438;2023-02-28T16:29:34;8.60;92.30
55004;DHT22;40900;52.710;6.438;2023-02-28T16:32:04;8.60;92.90
55004;DHT22;40900;52.710;6.438;2023-02-28T16:34:29;8.50;92.80
55004;DHT22;40900;52.710;6.438;2023-02-28T16:36:55;8.40;92.90
55004;DHT22;40900;52.710;6.438;2023-02-28T16:39:21;8.40;93.30
55004;DHT22;40900;52.710;6.438;2023-02-28T16:41:48;8.40;93.40
55004;DHT22;40900;52.710;6.438;2023-02-28T16:44:29;8.30;93.80
55004;DHT22;40900;52.710;6.438;2023-02-28T16:46:55;8.40;93.90
55004;DHT22;40900;52.710;6.438;2023-02-28T16:49:21;8.30;93.90
55004;DHT22;40900;52.710;6.438;2023-02-28T16:51:47;8.20;94.00
55004;DHT22;40900;52.710;6.438;2023-02-28T16:54:13;8.20;94.40
55004;DHT22;40900;52.710;6.438;2023-02-28T16:56:42;8.20;94.30
55004;DHT22;40900;52.710;6.438;2023-02-28T16:59:10;8.10;94.40
55004;DHT22;40900;52.710;6.438;2023-02-28T17:01:36;8.00;94.50
55004;DHT22;40900;52.710;6.438;2023-02-28T17:04:02;8.00;94.70
55004;DHT22;40900;52.710;6.438;2023-02-28T17:06:28;7.90;94.80
55004;DHT22;40900;52.710;6.438;2023-02-28T17:08:56;7.90;95.00
55004;DHT22;40900;52.710;6.438;2023-02-28T17:11:23;7.80;95.10
55004;DHT22;40900;52.710;6.438;2023-02-28T17:13:48;7.80;95.30
55004;DHT22;40900;52.710;6.438;2023-02-28T17:16:30;7.80;95.40
55004;DHT22;40900;52.710;6.438;2023-02-28T17:19:03;7.80;95.60
55004;DHT22;40900;52.710;6.438;2023-02-28T17:21:29;7.70;95.60
55004;DHT22;40900;52.710;6.438;2023-02-28T17:23:55;7.70;95.80
55004;DHT22;40900;52.710;6.438;2023-02-28T17:26:22;7.60;96.00
55004;DHT22;40900;52.710;6.438;2023-02-28T17:28:52;7.60;96.20
55004;DHT22;40900;52.710;6.438;2023-02-28T17:31:21;7.60;96.30
55004;DHT22;40900;52.710;6.438;2023-02-28T17:33:47;7.50;96.60
55004;DHT22;40900;52.710;6.438;2023-02-28T17:36:20;7.50;96.70
55004;DHT22;40900;52.710;6.438;2023-02-28T17:38:47;7.40;97.10
55004;DHT22;40900;52.710;6.438;2023-02-28T17:41:13;7.40;97.30
55004;DHT22;40900;52.710;6.438;2023-02-28T17:43:40;7.30;97.60
55004;DHT22;40900;52.710;6.438;2023-02-28T17:46:25;7.30;97.80
55004;DHT22;40900;52.710;6.438;2023-02-28T17:48:52;7.30;98.00
55004;DHT22;40900;52.710;6.438;2023-02-28T17:51:20;7.20;98.40
55004;DHT22;40900;52.710;6.438;2023-02-28T17:53:46;7.20;98.70
55004;DHT22;40900;52.710;6.438;2023-02-28T17:56:15;7.10;98.90
55004;DHT22;40900;52.710;6.438;2023-02-28T17:58:41;7.20;99.30
55004;DHT22;40900;52.710;6.438;2023-02-28T18:01:07;7.10;99.50
55004;DHT22;40900;52.710;6.438;2023-02-28T18:03:33;7.00;99.90
55004;DHT22;40900;52.710;6.438;2023-02-28T18:05:59;7.00;99.90
55004;DHT22;40900;52.710;6.438;2023-02-28T18:08:25;6.90;99.90
55004;DHT22;40900;52.710;6.438;2023-02-28T18:10:51;6.90;99.90
55004;DHT22;40900;52.710;6.438;2023-02-28T18:13:17;6.80;99.90
55004;DHT22;40900;52.710;6.438;2023-02-28T18:15:43;6.80;99.90
55004;DHT22;40900;52.710;6.438;2023-02-28T18:18:09;6.70;99.90
55004;DHT22;40900;52.710;6.438;2023-02-28T18:20:35;6.70;99.90
55004;DHT22;40900;52.710;6.438;2023-02-28T18:23:01;6.60;99.90
55004;DHT22;40900;52.710;6.438;2023-02-28T18:25:27;6.60;99.90
55004;DHT22;40900;52.710;6.438;2023-02-28T18:27:53;6.50;99.90
55004;DHT22;40900;52.710;6.438;2023-02-28T18:30:23;6.40;99.90
55004;DHT22;40900;52.710;6.438;2023-02-28T18:32:49;6.40;99.90